Date,TemperatureHighF,TemperatureAvgF,TemperatureLowF,DewpointHighF,DewpointAvgF,DewpointLowF,HumidityHigh,HumidityAvg,HumidityLow,PressureMaxIn,PressureMinIn,WindSpeedMaxMPH,WindSpeedAvgMPH,GustSpeedMaxMPH,PrecipitationSumIn
2013-2-1,72.1,61.1,51.4,53.5,47.1,35.3,73,60,50,30.24,30.13,41,15,41,0.00
2013-2-2,73.7,62.6,53.1,52.9,47.4,36.5,86,59,42,30.23,30.09,32,4,32,0.00
2013-2-3,73.9,62.0,54.4,54.2,47.2,35.3,92,63,26,30.14,30.04,28,6,28,0.00
2013-2-4,74.9,60.7,47.6,54.1,46.9,36.8,89,64,29,30.11,30.00,24,2,24,0.00
2013-2-5,78.6,65.5,52.2,62.3,56.9,50.5,95,76,49,30.05,29.97,24,2,24,0.00
2013-2-6,79.2,69.0,59.3,66.0,61.4,57.9,96,78,58,30.07,29.99,20,0,20,0.00
2013-2-7,80.3,71.7,62.3,65.2,62.4,59.6,93,74,52,30.04,29.92,30,3,30,0.00
2013-2-8,83.0,73.6,64.8,69.0,66.8,57.8,93,80,59,30.00,29.88,34,5,34,0.00
2013-2-9,79.0,69.6,60.7,66.8,61.4,55.2,96,76,58,30.13,29.98,40,9,40,0.00
2013-2-10,74.9,70.6,66.1,64.8,60.5,55.3,87,71,64,30.23,30.12,38,7,38,0.06
2013-2-11,78.1,71.6,64.2,64.7,62.6,59.3,87,74,62,30.18,30.08,32,6,32,0.00
2013-2-12,85.3,73.2,62.6,68.4,64.5,58.9,95,76,43,30.09,29.94,34,6,34,0.00
2013-2-13,85.7,76.4,69.1,70.6,68.2,65.1,94,77,51,29.98,29.87,41,9,41,0.00
2013-2-14,81.1,70.7,62.0,71.7,66.7,60.0,96,88,67,29.98,29.83,53,7,53,0.55
2013-2-15,71.6,65.9,62.3,67.6,64.1,61.1,97,94,77,29.99,29.92,24,2,24,0.25
2013-2-16,74.0,64.7,54.4,63.4,56.0,44.8,97,76,38,30.05,29.85,48,14,48,0.01
2013-2-17,57.5,50.9,44.5,44.8,28.0,15.4,71,44,22,30.27,30.04,51,20,51,0.00
2013-2-18,68.4,58.7,46.0,55.4,44.2,32.3,71,59,45,30.29,30.17,41,12,41,0.00
2013-2-19,77.7,70.1,58.6,66.4,60.1,52.8,92,71,59,30.17,30.06,38,11,38,0.02
2013-2-20,78.3,69.6,64.5,65.8,63.1,55.5,96,82,46,30.08,29.99,24,3,24,0.01
2013-2-21,81.1,71.9,63.5,68.3,64.3,61.6,96,78,57,30.06,29.96,28,4,28,0.00
2013-2-22,81.4,75.1,69.8,69.8,68.3,64.8,89,80,65,30.07,29.98,38,11,38,0.00
2013-2-23,84.0,76.9,72.8,71.2,69.0,66.6,90,77,58,30.01,29.89,34,12,34,0.00
2013-2-24,88.4,77.4,71.1,72.6,68.7,59.9,96,77,40,29.97,29.87,27,2,27,0.00
2013-2-25,83.6,75.1,67.6,72.9,68.9,65.3,95,82,59,29.89,29.78,33,7,33,0.02
2013-2-26,84.7,78.8,74.6,72.0,69.2,65.5,88,74,56,29.87,29.77,53,17,53,0.00
2013-2-27,76.7,70.2,64.5,72.6,65.2,61.0,96,85,63,29.94,29.83,25,6,25,0.11
2013-2-28,68.8,63.7,59.3,63.6,54.2,47.9,96,72,52,29.98,29.88,29,9,29,0.00